createdAt,value
2023-05-09T00:01:50.156Z,101605.91
2023-05-09T00:06:53.709Z,101607.06
2023-05-09T00:11:56.505Z,101606.78
2023-05-09T00:16:59.357Z,101612.66
2023-05-09T00:22:01.622Z,101602.25
2023-05-09T00:27:03.310Z,101586.91
2023-05-09T00:32:05.329Z,101586.53
2023-05-09T00:37:07.157Z,101590.66
2023-05-09T00:42:08.850Z,101581.47
2023-05-09T00:47:10.661Z,101577.16
2023-05-09T00:52:12.363Z,101564.38
2023-05-09T00:57:14.494Z,101548.44
2023-05-09T01:02:18.078Z,101556.19
2023-05-09T01:07:52.088Z,101543.94
2023-05-09T01:13:15.831Z,101539.94
2023-05-09T01:18:36.541Z,101532.38
2023-05-09T01:23:44.322Z,101519.22
2023-05-09T01:29:15.480Z,101510.06
2023-05-09T01:34:18.505Z,101502.59
2023-05-09T01:39:22.376Z,101499.56
2023-05-09T01:44:25.570Z,101487.97
2023-05-09T01:49:31.583Z,101488.47
2023-05-09T01:54:34.839Z,101480.31
2023-05-09T01:59:41.906Z,101481.22
2023-05-09T02:04:44.920Z,101474.78
2023-05-09T02:09:49.700Z,101465.09
2023-05-09T02:14:53.304Z,101462.50
2023-05-09T02:19:54.985Z,101468.03
2023-05-09T02:24:57.110Z,101462.88
2023-05-09T02:30:02.732Z,101454.66
2023-05-09T02:35:07.685Z,101446.34
2023-05-09T02:40:10.583Z,101442.06
2023-05-09T02:45:14.008Z,101438.03
2023-05-09T02:50:15.963Z,101432.88
2023-05-09T02:55:18.131Z,101424.97
2023-05-09T03:00:22.259Z,101420.75
2023-05-09T03:05:24.106Z,101411.97
2023-05-09T03:10:25.898Z,101405.19
2023-05-09T03:15:27.654Z,101394.59
2023-05-09T03:20:29.450Z,101402.25
2023-05-09T03:25:31.486Z,101384.78
2023-05-09T03:30:36.719Z,101388.22
2023-05-09T03:35:39.900Z,101392.69
2023-05-09T03:40:42.261Z,101378.59
2023-05-09T03:45:46.071Z,101366.19
2023-05-09T03:50:49.550Z,101364.09
2023-05-09T03:55:52.385Z,101355.38
2023-05-09T04:00:56.222Z,101363.31
2023-05-09T04:06:00.007Z,101353.00
2023-05-09T04:11:10.068Z,101336.59
2023-05-09T04:16:14.029Z,101323.59
2023-05-09T04:21:16.414Z,101320.34
2023-05-09T04:26:22.813Z,101326.78
2023-05-09T04:31:27.309Z,101326.19
2023-05-09T04:36:29.275Z,101324.38
2023-05-09T04:41:33.919Z,101309.50
2023-05-09T04:46:35.961Z,101308.84
2023-05-09T04:51:38.003Z,101307.09
2023-05-09T04:56:39.777Z,101306.91
2023-05-09T05:01:41.565Z,101299.47
2023-05-09T05:06:43.501Z,101298.13
2023-05-09T05:11:57.962Z,101292.00
2023-05-09T05:17:01.916Z,101282.50
2023-05-09T05:22:05.620Z,101278.28
2023-05-09T05:27:08.514Z,101274.00
2023-05-09T05:32:10.764Z,101269.06
2023-05-09T05:37:12.816Z,101264.97
2023-05-09T05:42:16.225Z,101251.59
2023-05-09T05:47:18.677Z,101250.66
2023-05-09T05:52:21.236Z,101253.13
2023-05-09T05:57:23.085Z,101237.47
2023-05-09T06:02:25.354Z,101233.47
2023-05-09T06:07:27.643Z,101224.63
2023-05-09T06:12:29.356Z,101222.41
2023-05-09T06:17:31.330Z,101214.88
2023-05-09T06:22:33.131Z,101216.19
2023-05-09T06:27:37.991Z,101218.00
2023-05-09T06:32:39.734Z,101209.91
2023-05-09T06:37:45.942Z,101207.06
2023-05-09T06:42:48.822Z,101202.38
2023-05-09T06:47:54.208Z,101198.19
2023-05-09T06:52:56.549Z,101192.75
2023-05-09T06:57:58.356Z,101188.94
2023-05-09T07:03:00.069Z,101173.69
2023-05-09T07:08:01.892Z,101167.13
2023-05-09T07:13:04.712Z,101160.50
2023-05-09T07:18:06.464Z,101161.59
2023-05-09T07:23:08.230Z,101154.81
2023-05-09T07:28:12.367Z,101144.81
2023-05-09T07:33:14.042Z,101151.00
2023-05-09T07:38:15.746Z,101140.78
2023-05-09T07:43:17.439Z,101129.00
2023-05-09T07:48:19.376Z,101127.28
2023-05-09T07:53:21.570Z,101118.81
2023-05-09T07:58:23.236Z,101108.88
2023-05-09T08:03:25.135Z,101095.16
2023-05-09T08:08:27.232Z,101090.41
2023-05-09T08:13:28.992Z,101084.50
2023-05-09T08:18:31.132Z,101068.34
2023-05-09T08:23:32.946Z,101079.00
2023-05-09T08:28:34.642Z,101064.84
2023-05-09T08:33:38.834Z,101054.34
2023-05-09T08:38:42.142Z,101054.22
2023-05-09T08:43:44.400Z,101050.38
2023-05-09T08:48:46.163Z,101048.56
2023-05-09T08:53:48.491Z,101038.06
2023-05-09T08:58:50.353Z,101035.56
2023-05-09T09:03:54.359Z,101037.66
2023-05-09T09:08:57.580Z,101023.47
2023-05-09T09:14:06.203Z,101027.72
2023-05-09T09:19:13.096Z,101017.78
2023-05-09T09:24:15.019Z,101017.13
2023-05-09T09:29:18.674Z,101016.34
2023-05-09T09:34:22.886Z,101008.03
2023-05-09T09:39:24.614Z,101011.19
2023-05-09T09:44:27.060Z,101004.63
2023-05-09T09:49:28.803Z,100997.56
2023-05-09T09:54:32.191Z,100995.66
2023-05-09T09:59:33.838Z,100991.44
2023-05-09T10:04:41.658Z,100995.94
2023-05-09T10:09:44.030Z,100987.94
2023-05-09T10:14:47.274Z,100986.16
2023-05-09T10:19:52.784Z,100984.00
2023-05-09T10:25:08.292Z,100981.41
2023-05-09T10:30:15.549Z,100971.81
2023-05-09T10:35:18.542Z,100966.94
2023-05-09T10:40:21.240Z,100962.47
2023-05-09T10:45:23.460Z,100955.91
2023-05-09T10:50:26.211Z,100951.66
2023-05-09T10:55:55.691Z,100942.72
2023-05-09T11:01:03.783Z,100926.75
2023-05-09T11:06:08.767Z,100936.41
2023-05-09T11:11:25.686Z,100927.41
2023-05-09T11:16:27.442Z,100923.16
2023-05-09T11:21:29.100Z,100919.88
2023-05-09T11:26:31.578Z,100910.03
2023-05-09T11:31:33.497Z,100912.03
2023-05-09T11:36:36.054Z,100906.03
2023-05-09T11:41:43.605Z,100905.19
2023-05-09T11:46:47.041Z,100888.47
2023-05-09T11:51:48.746Z,100888.69
2023-05-09T11:56:52.893Z,100888.97
2023-05-09T12:01:54.725Z,100875.34
2023-05-09T12:06:59.032Z,100873.63
2023-05-09T12:12:01.510Z,100866.13
2023-05-09T12:17:03.678Z,100871.44
2023-05-09T12:22:10.051Z,100866.72
2023-05-09T12:27:11.979Z,100856.56
2023-05-09T12:32:16.894Z,100856.13
2023-05-09T12:37:19.352Z,100851.47
2023-05-09T12:42:21.742Z,100857.31
2023-05-09T12:47:28.114Z,100851.00
2023-05-09T12:52:46.994Z,100846.53
2023-05-09T12:58:01.735Z,100836.09
2023-05-09T13:03:04.346Z,100833.50
2023-05-09T13:08:06.063Z,100832.63
2023-05-09T13:13:07.915Z,100836.88
2023-05-09T13:18:10.862Z,100824.53
2023-05-09T13:23:12.635Z,100832.19
2023-05-09T13:28:15.169Z,100824.75
2023-05-09T13:33:25.401Z,100812.63
2023-05-09T13:38:31.016Z,100812.63
2023-05-09T13:43:32.937Z,100798.03
2023-05-09T13:48:34.597Z,100806.63
2023-05-09T13:53:38.671Z,100807.13
2023-05-09T13:58:40.690Z,100809.94
2023-05-09T14:03:42.460Z,100795.00
2023-05-09T14:08:44.222Z,100794.56
2023-05-09T14:13:45.883Z,100793.53
2023-05-09T14:18:48.278Z,100788.00
2023-05-09T14:23:54.181Z,100781.72
2023-05-09T14:28:55.867Z,100780.72
2023-05-09T14:34:00.177Z,100770.50
2023-05-09T14:39:02.393Z,100760.66
2023-05-09T14:44:04.188Z,100756.41
2023-05-09T14:49:06.756Z,100759.81
2023-05-09T14:54:09.389Z,100750.03
2023-05-09T14:59:11.725Z,100748.75
2023-05-09T15:04:13.572Z,100739.38
2023-05-09T15:09:15.596Z,100730.03
2023-05-09T15:14:17.238Z,100733.81
2023-05-09T15:19:19.309Z,100750.13
2023-05-09T15:24:21.348Z,100744.03
2023-05-09T15:29:23.386Z,100742.06
2023-05-09T15:34:25.305Z,100749.72
2023-05-09T15:39:27.241Z,100747.59
2023-05-09T15:44:31.615Z,100737.66
2023-05-09T15:49:34.166Z,100748.81
2023-05-09T15:54:36.971Z,100749.22
2023-05-09T15:59:40.127Z,100744.25
2023-05-09T16:04:42.557Z,100739.16
2023-05-09T16:09:44.779Z,100728.28
2023-05-09T16:14:46.469Z,100724.00
2023-05-09T16:19:48.188Z,100727.13
2023-05-09T16:24:49.863Z,100715.88
2023-05-09T16:29:59.340Z,100724.16
2023-05-09T16:35:01.056Z,100720.94
2023-05-09T16:40:04.470Z,100714.81
2023-05-09T16:45:07.213Z,100714.16
2023-05-09T16:50:10.509Z,100720.22
2023-05-09T16:55:12.589Z,100711.41
2023-05-09T17:00:16.461Z,100703.63
2023-05-09T17:05:18.725Z,100702.22
2023-05-09T17:10:22.836Z,100690.75
2023-05-09T17:15:28.566Z,100691.16
2023-05-09T17:20:30.941Z,100689.91
2023-05-09T17:25:33.483Z,100696.69
2023-05-09T17:30:36.584Z,100698.25
2023-05-09T17:35:38.267Z,100693.38
2023-05-09T17:40:40.171Z,100690.84
2023-05-09T17:45:42.668Z,100689.59
2023-05-09T17:50:46.237Z,100688.41
2023-05-09T17:55:47.937Z,100690.38
2023-05-09T18:00:53.973Z,100690.25
2023-05-09T18:05:55.978Z,100690.38
2023-05-09T18:10:57.884Z,100695.53
2023-05-09T18:16:02.892Z,100691.34
2023-05-09T18:21:05.472Z,100691.03
2023-05-09T18:26:08.596Z,100692.75
2023-05-09T18:31:12.036Z,100695.06
2023-05-09T18:36:16.915Z,100695.66
2023-05-09T18:41:18.541Z,100706.41
2023-05-09T18:46:21.606Z,100695.13
2023-05-09T18:51:24.183Z,100708.00
2023-05-09T18:56:25.871Z,100703.53
2023-05-09T19:01:27.550Z,100707.16
2023-05-09T19:06:29.260Z,100703.84
2023-05-09T19:11:30.916Z,100706.41
2023-05-09T19:16:32.723Z,100705.34
2023-05-09T19:21:35.650Z,100707.28
2023-05-09T19:26:38.149Z,100707.75
2023-05-09T19:31:39.860Z,100728.63
2023-05-09T19:36:41.481Z,100722.72
2023-05-09T19:41:43.201Z,100718.91
2023-05-09T19:46:45.031Z,100726.16
2023-05-09T19:51:46.855Z,100728.25
2023-05-09T19:56:48.506Z,100732.03
2023-05-09T20:01:50.527Z,100730.34
2023-05-09T20:06:53.277Z,100729.41
2023-05-09T20:11:55.170Z,100726.94
2023-05-09T20:16:57.223Z,100739.22
2023-05-09T20:22:00.240Z,100729.63
2023-05-09T20:27:03.192Z,100734.47
2023-05-09T20:32:05.423Z,100728.97
2023-05-09T20:37:07.795Z,100724.84
2023-05-09T20:42:09.685Z,100726.53
2023-05-09T20:47:11.446Z,100728.72
2023-05-09T20:52:13.276Z,100728.91
2023-05-09T20:57:15.143Z,100739.28
2023-05-09T21:02:17.001Z,100726.53
2023-05-09T21:07:19.515Z,100739.28
2023-05-09T21:12:24.227Z,100724.03
2023-05-09T21:17:26.228Z,100725.75
2023-05-09T21:22:29.070Z,100728.78
2023-05-09T21:27:31.504Z,100721.56
2023-05-09T21:32:33.354Z,100720.13
2023-05-09T21:37:36.422Z,100717.38
2023-05-09T21:42:40.734Z,100710.13
2023-05-09T21:47:42.841Z,100707.16
2023-05-09T21:52:44.811Z,100704.22
2023-05-09T21:57:46.755Z,100700.53
2023-05-09T22:02:48.727Z,100700.72
2023-05-09T22:07:54.100Z,100710.53
2023-05-09T22:12:56.092Z,100702.13
2023-05-09T22:17:57.898Z,100710.19
2023-05-09T22:22:59.637Z,100705.97
2023-05-09T22:28:01.462Z,100710.66
2023-05-09T22:33:03.195Z,100703.00
2023-05-09T22:38:04.894Z,100701.09
2023-05-09T22:43:06.538Z,100700.66
2023-05-09T22:48:08.423Z,100708.47
2023-05-09T22:53:10.685Z,100691.72
2023-05-09T22:58:12.373Z,100699.78
2023-05-09T23:03:14.156Z,100699.78
2023-05-09T23:08:16.158Z,100688.97
2023-05-09T23:13:17.903Z,100687.44
2023-05-09T23:18:21.161Z,100690.00
2023-05-09T23:23:22.978Z,100685.94
2023-05-09T23:28:25.406Z,100690.97
2023-05-09T23:33:27.580Z,100691.59
2023-05-09T23:38:29.237Z,100688.97
2023-05-09T23:43:30.871Z,100690.28
2023-05-09T23:48:32.654Z,100689.19
2023-05-09T23:53:35.308Z,100687.81
2023-05-09T23:58:37.037Z,100685.25
